Skip Navigation LinksHome page > Weather > Current weather Skip Navigation Links

Current Weather

Detroit City, Detroit

For information only: do not use for flight planning or navigation.
Latest weather
Observation time Sunday, May 26, 2019 11:53 AM EDT
Local time Sunday, May 26, 2019 12:22 PM EDT
Flight conditions Visual Meteorological Conditions
Winds
Wind direction East-Northeast (60°)
Wind speed 6 mph
Visibility 10 mi.
Sky condition
Ceiling unlimited
Cloud layer few clouds 2,100 ft.
Temperature 68°F
Dewpoint 53°F
Altimeter 30.03 in.Hg
Derived measurements
Relative humidity 59%
Density altitude 1281 ft.
Sea-level pressure 30.02 in.Hg
Remarks
Automated weather observing station with precipitation discriminator.
METAR KDET 261553Z 06005KT 10SM FEW021 20/12 A3003 RMK AO2 SLP166 T02000117

Settings

Location code

InnerDrive.Weather 4.0.6770.0 Release CLR 4.0.30319.42000
Copyright ©2018 Inner Drive Technology. All rights reserved. Portions Copyright ©1986-2018 David Braverman.

Find weather

Site navigation


Skip Navigation Links

Place info

Page info

PayPal - The safer, easier way to pay online!

Return home.

Copyright ©2019 Inner Drive Technology. Purveyors of fine, hand-crafted computer software. Page printed 2019-05-26T16:22:06 UTC.